createdAt,value
2018-03-19T00:01:01.979Z,-2.74
2018-03-19T00:03:28.261Z,-2.77
2018-03-19T00:05:54.323Z,-2.85
2018-03-19T00:08:20.380Z,-2.87
2018-03-19T00:10:46.412Z,-2.95
2018-03-19T00:13:12.502Z,-2.92
2018-03-19T00:15:38.572Z,-2.98
2018-03-19T00:18:04.631Z,-3.00
2018-03-19T00:20:30.661Z,-2.96
2018-03-19T00:22:56.879Z,-3.00
2018-03-19T00:25:22.937Z,-3.09
2018-03-19T00:27:48.997Z,-3.12
2018-03-19T00:30:15.183Z,-3.10
2018-03-19T00:32:41.228Z,-3.05
2018-03-19T00:35:07.240Z,-3.12
2018-03-19T00:37:33.349Z,-3.17
2018-03-19T00:39:59.483Z,-3.16
2018-03-19T00:42:25.593Z,-3.13
2018-03-19T00:44:52.195Z,-3.10
2018-03-19T00:47:18.254Z,-3.10
2018-03-19T00:49:44.364Z,-3.19
2018-03-19T00:52:10.456Z,-3.18
2018-03-19T00:54:36.547Z,-3.21
2018-03-19T00:57:02.596Z,-3.21
2018-03-19T00:59:28.630Z,-3.30
2018-03-19T01:01:54.707Z,-3.29
2018-03-19T01:04:20.808Z,-3.33
2018-03-19T01:06:46.879Z,-3.32
2018-03-19T01:09:12.955Z,-3.32
2018-03-19T01:11:39.010Z,-3.32
2018-03-19T01:14:05.066Z,-3.32
2018-03-19T01:16:31.100Z,-3.35
2018-03-19T01:18:57.325Z,-3.39
2018-03-19T01:21:23.351Z,-3.43
2018-03-19T01:23:49.462Z,-3.48
2018-03-19T01:26:15.508Z,-3.46
2018-03-19T01:28:41.734Z,-3.49
2018-03-19T01:31:07.773Z,-3.51
2018-03-19T01:33:33.825Z,-3.57
2018-03-19T01:35:59.897Z,-3.53
2018-03-19T01:38:25.941Z,-3.59
2018-03-19T01:40:52.031Z,-3.57
2018-03-19T01:43:18.179Z,-3.57
2018-03-19T01:45:44.283Z,-3.57
2018-03-19T01:48:10.396Z,-3.60
2018-03-19T01:50:36.545Z,-3.62
2018-03-19T01:53:02.557Z,-3.64
2018-03-19T01:55:28.632Z,-3.65
2018-03-19T01:57:54.725Z,-3.68
2018-03-19T02:00:20.862Z,-3.70
2018-03-19T02:02:46.907Z,-3.69
2018-03-19T02:05:12.944Z,-3.71
2018-03-19T02:07:39.935Z,-3.69
2018-03-19T02:10:06.004Z,-3.71
2018-03-19T02:12:32.104Z,-3.78
2018-03-19T02:14:58.123Z,-3.85
2018-03-19T02:17:24.253Z,-3.82
2018-03-19T02:19:50.322Z,-3.80
2018-03-19T02:22:16.360Z,-3.82
2018-03-19T02:24:42.406Z,-3.89
2018-03-19T02:27:08.430Z,-3.90
2018-03-19T02:29:34.526Z,-3.88
2018-03-19T02:32:00.544Z,-3.92
2018-03-19T02:34:26.610Z,-3.96
2018-03-19T02:36:52.637Z,-3.92
2018-03-19T02:39:18.717Z,-3.91
2018-03-19T02:41:44.797Z,-3.95
2018-03-19T02:44:10.819Z,-3.96
2018-03-19T02:46:36.928Z,-4.00
2018-03-19T02:49:02.991Z,-4.00
2018-03-19T02:51:29.261Z,-3.99
2018-03-19T02:53:55.282Z,-3.95
2018-03-19T02:56:21.366Z,-4.02
2018-03-19T02:58:47.436Z,-4.07
2018-03-19T03:01:13.515Z,-4.10
2018-03-19T03:03:39.581Z,-4.20
2018-03-19T03:06:05.622Z,-4.21
2018-03-19T03:08:31.640Z,-4.14
2018-03-19T03:10:57.705Z,-4.13
2018-03-19T03:13:23.778Z,-4.24
2018-03-19T03:15:49.959Z,-4.20
2018-03-19T03:18:16.069Z,-4.22
2018-03-19T03:20:42.126Z,-4.19
2018-03-19T03:23:08.423Z,-4.21
2018-03-19T03:25:34.455Z,-4.24
2018-03-19T03:28:00.520Z,-4.24
2018-03-19T03:30:26.572Z,-4.24
2018-03-19T03:32:52.626Z,-4.30
2018-03-19T03:35:19.696Z,-4.38
2018-03-19T03:37:45.783Z,-4.37
2018-03-19T03:40:11.842Z,-4.36
2018-03-19T03:42:37.874Z,-4.39
2018-03-19T03:45:03.952Z,-4.40
2018-03-19T03:47:30.004Z,-4.45
2018-03-19T03:49:56.223Z,-4.45
2018-03-19T03:52:22.291Z,-4.45
2018-03-19T03:54:48.365Z,-4.45
2018-03-19T03:57:14.594Z,-4.46
2018-03-19T03:59:40.636Z,-4.41
2018-03-19T04:02:06.668Z,-4.44
2018-03-19T04:04:32.699Z,-4.40
2018-03-19T04:06:58.807Z,-4.41
2018-03-19T04:12:18.071Z,-4.47
2018-03-19T04:14:44.142Z,-4.49
2018-03-19T04:17:10.195Z,-4.50
2018-03-19T04:19:36.270Z,-4.53
2018-03-19T04:22:02.351Z,-4.56
2018-03-19T04:24:28.459Z,-4.61
2018-03-19T04:26:54.510Z,-4.63
2018-03-19T04:29:20.571Z,-4.67
2018-03-19T04:31:46.606Z,-4.62
2018-03-19T04:34:12.634Z,-4.71
2018-03-19T04:36:38.753Z,-4.68
2018-03-19T04:39:04.819Z,-4.76
2018-03-19T04:41:30.888Z,-4.80
2018-03-19T04:43:56.941Z,-4.82
2018-03-19T04:46:23.066Z,-4.84
2018-03-19T04:48:49.170Z,-4.85
2018-03-19T04:51:15.264Z,-4.85
2018-03-19T04:53:41.442Z,-4.86
2018-03-19T04:56:07.472Z,-4.84
2018-03-19T04:58:33.558Z,-4.80
2018-03-19T05:00:59.744Z,-4.80
2018-03-19T05:03:25.829Z,-4.74
2018-03-19T05:05:51.884Z,-4.75
2018-03-19T05:08:17.960Z,-4.82
2018-03-19T05:10:44.064Z,-4.86
2018-03-19T05:13:10.190Z,-4.87
2018-03-19T05:15:36.277Z,-4.95
2018-03-19T05:18:02.338Z,-4.97
2018-03-19T05:20:28.690Z,-4.97
2018-03-19T05:22:54.723Z,-4.99
2018-03-19T05:25:21.023Z,-4.92
2018-03-19T05:27:47.090Z,-4.90
2018-03-19T05:30:13.106Z,-4.90
2018-03-19T05:32:39.225Z,-4.93
2018-03-19T05:35:05.306Z,-5.01
2018-03-19T05:37:31.376Z,-5.00
2018-03-19T05:39:57.425Z,-5.02
2018-03-19T05:42:23.675Z,-4.96
2018-03-19T05:44:49.749Z,-4.95
2018-03-19T05:47:15.893Z,-4.88
2018-03-19T05:49:41.968Z,-4.89
2018-03-19T05:52:08.111Z,-4.88
2018-03-19T05:54:34.155Z,-4.88
2018-03-19T05:57:00.246Z,-4.84
2018-03-19T05:59:26.494Z,-4.82
2018-03-19T06:01:52.565Z,-4.77
2018-03-19T06:04:18.643Z,-4.76
2018-03-19T06:06:44.713Z,-4.74
2018-03-19T06:09:10.797Z,-4.67
2018-03-19T06:11:36.903Z,-4.65
2018-03-19T06:14:03.006Z,-4.62
2018-03-19T06:16:29.052Z,-4.59
2018-03-19T06:18:55.123Z,-4.48
2018-03-19T06:21:21.199Z,-4.48
2018-03-19T06:23:47.230Z,-4.51
2018-03-19T06:26:13.314Z,-4.48
2018-03-19T06:28:39.352Z,-4.42
2018-03-19T06:31:05.667Z,-4.40
2018-03-19T06:33:32.370Z,-4.31
2018-03-19T06:35:58.423Z,-4.21
2018-03-19T06:38:24.606Z,-4.14
2018-03-19T06:40:50.711Z,-4.15
2018-03-19T06:43:16.755Z,-4.18
2018-03-19T06:45:42.890Z,-4.15
2018-03-19T06:48:08.989Z,-4.08
2018-03-19T06:50:35.024Z,-4.02
2018-03-19T06:53:01.061Z,-4.05
2018-03-19T06:55:27.111Z,-4.01
2018-03-19T06:57:53.196Z,-3.90
2018-03-19T07:00:19.227Z,-3.92
2018-03-19T07:02:45.281Z,-3.85
2018-03-19T07:05:11.498Z,-3.78
2018-03-19T07:07:37.560Z,-3.77
2018-03-19T07:10:03.631Z,-3.66
2018-03-19T07:12:29.687Z,-3.62
2018-03-19T07:14:55.738Z,-3.60
2018-03-19T07:17:21.772Z,-3.57
2018-03-19T07:19:47.829Z,-3.49
2018-03-19T07:22:13.872Z,-3.40
2018-03-19T07:24:39.932Z,-3.37
2018-03-19T07:27:06.208Z,-3.27
2018-03-19T07:29:32.225Z,-3.27
2018-03-19T07:31:58.268Z,-3.21
2018-03-19T07:34:24.337Z,-3.17
2018-03-19T07:36:50.628Z,-3.12
2018-03-19T07:39:16.699Z,-3.09
2018-03-19T07:41:42.858Z,-3.01
2018-03-19T07:44:08.947Z,-2.98
2018-03-19T07:46:34.995Z,-2.90
2018-03-19T07:49:01.142Z,-2.85
2018-03-19T07:51:27.190Z,-2.77
2018-03-19T07:53:53.447Z,-2.73
2018-03-19T07:56:19.471Z,-2.69
2018-03-19T07:58:45.475Z,-2.63
2018-03-19T08:01:11.556Z,-2.55
2018-03-19T08:03:37.778Z,-2.52
2018-03-19T08:06:03.944Z,-2.46
2018-03-19T08:08:30.017Z,-2.44
2018-03-19T08:10:56.133Z,-2.41
2018-03-19T08:13:22.214Z,-2.42
2018-03-19T08:15:48.431Z,-2.36
2018-03-19T08:18:14.462Z,-2.28
2018-03-19T08:20:40.502Z,-2.25
2018-03-19T08:23:06.552Z,-2.13
2018-03-19T08:25:32.606Z,-2.07
2018-03-19T08:27:58.860Z,-2.10
2018-03-19T08:30:24.912Z,-1.96
2018-03-19T08:32:50.995Z,-1.91
2018-03-19T08:35:17.101Z,-1.87
2018-03-19T08:37:43.143Z,-1.87
2018-03-19T08:40:09.208Z,-1.79
2018-03-19T08:42:35.292Z,-1.82
2018-03-19T08:45:01.392Z,-1.80
2018-03-19T08:47:27.444Z,-1.83
2018-03-19T08:49:53.616Z,-1.65
2018-03-19T08:52:19.718Z,-1.59
2018-03-19T08:54:45.723Z,-1.50
2018-03-19T08:57:11.927Z,-1.56
2018-03-19T08:59:37.980Z,-1.47
2018-03-19T09:02:04.280Z,-1.41
2018-03-19T09:04:30.311Z,-1.38
2018-03-19T09:06:56.543Z,-1.35
2018-03-19T09:09:22.662Z,-1.32
2018-03-19T09:11:48.708Z,-1.27
2018-03-19T09:14:14.771Z,-1.24
2018-03-19T09:16:40.838Z,-1.20
2018-03-19T09:19:06.888Z,-1.22
2018-03-19T09:21:32.922Z,-1.25
2018-03-19T09:23:58.953Z,-1.12
2018-03-19T09:26:25.036Z,-0.96
2018-03-19T09:28:51.107Z,-0.87
2018-03-19T09:31:17.159Z,-0.85
2018-03-19T09:33:43.257Z,-0.68
2018-03-19T09:36:09.350Z,-0.56
2018-03-19T09:38:35.439Z,-0.58
2018-03-19T09:41:01.484Z,-0.66
2018-03-19T09:43:27.693Z,-0.67
2018-03-19T09:45:53.718Z,-0.61
2018-03-19T09:48:19.808Z,-0.54
2018-03-19T09:50:45.897Z,-0.46
2018-03-19T09:53:11.926Z,-0.50
2018-03-19T09:55:37.980Z,-0.40
2018-03-19T09:58:04.001Z,-0.15
2018-03-19T10:00:30.175Z,-0.02
2018-03-19T10:02:56.194Z,0.05
2018-03-19T10:05:22.227Z,0.00
2018-03-19T10:07:48.481Z,-0.02
2018-03-19T10:10:14.643Z,-0.01
2018-03-19T10:12:40.922Z,0.00
2018-03-19T10:15:06.977Z,0.01
2018-03-19T10:17:33.030Z,0.12
2018-03-19T10:19:59.271Z,0.26
2018-03-19T10:22:25.301Z,0.31
2018-03-19T10:24:51.432Z,0.30
2018-03-19T10:27:17.518Z,0.26
2018-03-19T10:29:43.547Z,0.40
2018-03-19T10:32:09.591Z,0.38
2018-03-19T10:34:35.688Z,0.50
2018-03-19T10:37:01.740Z,0.76
2018-03-19T10:39:27.865Z,0.90
2018-03-19T10:41:53.911Z,1.02
2018-03-19T10:44:19.985Z,1.17
2018-03-19T10:46:46.133Z,1.34
2018-03-19T10:49:12.271Z,1.41
2018-03-19T10:51:38.346Z,1.43
2018-03-19T10:54:04.377Z,1.47
2018-03-19T10:56:30.471Z,1.63
2018-03-19T10:58:56.495Z,1.72
2018-03-19T11:01:28.522Z,1.91
2018-03-19T11:04:00.422Z,2.03
2018-03-19T11:06:32.624Z,2.18
2018-03-19T11:09:04.624Z,2.24
2018-03-19T11:11:30.983Z,2.42
2018-03-19T11:13:57.063Z,2.56
2018-03-19T11:16:23.095Z,2.77
2018-03-19T11:18:49.152Z,2.98
2018-03-19T11:21:15.219Z,3.19
2018-03-19T11:23:41.416Z,3.51
2018-03-19T11:26:07.479Z,3.74
2018-03-19T11:28:33.602Z,4.22
2018-03-19T11:30:59.839Z,4.61
2018-03-19T11:33:25.969Z,4.95
2018-03-19T11:35:52.065Z,5.42
2018-03-19T11:38:18.398Z,5.48
2018-03-19T11:40:44.467Z,5.61
2018-03-19T11:43:10.695Z,5.93
2018-03-19T11:45:36.722Z,6.40
2018-03-19T11:48:02.960Z,6.54
2018-03-19T11:50:29.068Z,5.88
2018-03-19T11:52:55.180Z,6.44
2018-03-19T11:55:21.648Z,5.91
2018-03-19T11:57:47.733Z,6.49
2018-03-19T12:00:13.782Z,6.69
2018-03-19T12:02:39.843Z,6.80
2018-03-19T12:05:05.935Z,7.01
2018-03-19T12:07:32.191Z,6.93
2018-03-19T12:09:58.276Z,7.17
2018-03-19T12:12:24.336Z,7.46
2018-03-19T12:14:50.512Z,7.53
2018-03-19T12:17:16.552Z,8.16
2018-03-19T12:19:42.587Z,8.52
2018-03-19T12:22:08.689Z,7.90
2018-03-19T12:24:34.787Z,7.72
2018-03-19T12:27:00.864Z,7.98
2018-03-19T12:29:26.923Z,7.85
2018-03-19T12:31:53.007Z,7.42
2018-03-19T12:34:19.078Z,7.35
2018-03-19T12:36:45.124Z,7.87
2018-03-19T12:39:11.778Z,7.93
2018-03-19T12:41:37.862Z,8.13
2018-03-19T12:44:03.929Z,7.78
2018-03-19T12:46:29.960Z,8.87
2018-03-19T12:48:56.031Z,8.30
2018-03-19T12:51:23.030Z,8.44
2018-03-19T12:53:49.139Z,9.37
2018-03-19T12:56:15.216Z,8.60
2018-03-19T13:01:34.420Z,8.54
2018-03-19T13:04:00.493Z,9.30
2018-03-19T13:06:26.532Z,8.75
2018-03-19T13:08:52.618Z,9.45
2018-03-19T13:11:18.687Z,8.85
2018-03-19T13:13:44.756Z,8.82
2018-03-19T13:16:10.809Z,9.38
2018-03-19T13:18:36.892Z,9.10
2018-03-19T13:21:03.083Z,9.15
2018-03-19T13:23:29.180Z,8.68
2018-03-19T13:25:55.276Z,8.80
2018-03-19T13:28:21.332Z,8.65
2018-03-19T13:30:47.384Z,8.97
2018-03-19T13:33:13.592Z,8.64
2018-03-19T13:35:39.628Z,8.63
2018-03-19T13:38:05.905Z,8.65
2018-03-19T13:40:32.011Z,8.47
2018-03-19T13:42:58.186Z,8.67
2018-03-19T13:45:24.466Z,8.19
2018-03-19T13:47:50.546Z,8.16
2018-03-19T13:50:16.591Z,8.47
2018-03-19T13:52:42.650Z,8.34
2018-03-19T13:55:08.897Z,8.46
2018-03-19T13:57:34.928Z,8.85
2018-03-19T14:00:01.216Z,8.08
2018-03-19T14:02:27.302Z,8.85
2018-03-19T14:04:53.340Z,8.45
2018-03-19T14:07:19.426Z,8.90
2018-03-19T14:09:45.457Z,8.08
2018-03-19T14:12:11.548Z,7.91
2018-03-19T14:14:37.592Z,8.35
2018-03-19T14:17:03.774Z,8.52
2018-03-19T14:19:29.819Z,8.30
2018-03-19T14:21:56.096Z,8.30
2018-03-19T14:24:22.193Z,8.16
2018-03-19T14:26:48.372Z,8.32
2018-03-19T14:29:14.422Z,8.63
2018-03-19T14:31:40.471Z,9.04
2018-03-19T14:34:06.653Z,8.35
2018-03-19T14:36:32.765Z,8.47
2018-03-19T14:38:58.896Z,8.57
2018-03-19T14:41:25.037Z,8.95
2018-03-19T14:43:51.121Z,8.28
2018-03-19T14:46:17.196Z,8.85
2018-03-19T14:48:43.281Z,8.70
2018-03-19T14:51:09.440Z,8.33
2018-03-19T14:53:35.499Z,7.96
2018-03-19T14:56:01.527Z,7.68
2018-03-19T14:58:27.604Z,8.38
2018-03-19T15:00:53.643Z,8.73
2018-03-19T15:03:19.770Z,8.82
2018-03-19T15:05:45.874Z,8.54
2018-03-19T15:08:11.984Z,8.33
2018-03-19T15:10:38.131Z,7.81
2018-03-19T15:13:04.426Z,8.39
2018-03-19T15:15:30.487Z,8.02
2018-03-19T15:17:56.671Z,8.23
2018-03-19T15:20:22.727Z,8.19
2018-03-19T15:22:48.751Z,8.19
2018-03-19T15:25:14.903Z,8.43
2018-03-19T15:27:40.947Z,8.14
2018-03-19T15:30:07.018Z,8.02
2018-03-19T15:32:33.065Z,7.60
2018-03-19T15:34:59.134Z,7.28
2018-03-19T15:37:25.307Z,7.42
2018-03-19T15:39:51.337Z,7.44
2018-03-19T15:42:17.436Z,7.96
2018-03-19T15:44:43.469Z,7.15
2018-03-19T15:47:09.595Z,7.28
2018-03-19T15:49:35.631Z,7.10
2018-03-19T15:52:01.760Z,7.10
2018-03-19T15:54:27.932Z,7.51
2018-03-19T15:56:54.476Z,7.43
2018-03-19T15:59:20.572Z,7.61
2018-03-19T16:01:46.807Z,7.03
2018-03-19T16:04:12.865Z,6.51
2018-03-19T16:06:38.923Z,6.55
2018-03-19T16:09:05.071Z,6.36
2018-03-19T16:11:31.248Z,6.31
2018-03-19T16:13:57.295Z,6.37
2018-03-19T16:16:23.356Z,6.27
2018-03-19T16:18:49.420Z,6.42
2018-03-19T16:21:15.469Z,6.23
2018-03-19T16:23:41.503Z,5.86
2018-03-19T16:26:07.763Z,5.49
2018-03-19T16:28:33.911Z,5.31
2018-03-19T16:31:00.258Z,5.20
2018-03-19T16:33:26.279Z,5.16
2018-03-19T16:35:52.332Z,4.90
2018-03-19T16:38:18.414Z,4.67
2018-03-19T16:40:44.700Z,4.68
2018-03-19T16:43:10.794Z,4.49
2018-03-19T16:45:36.836Z,4.31
2018-03-19T16:48:02.922Z,4.11
2018-03-19T16:50:28.989Z,3.98
2018-03-19T16:52:55.076Z,3.98
2018-03-19T16:55:21.166Z,3.87
2018-03-19T16:57:47.211Z,3.64
2018-03-19T17:00:13.314Z,3.60
2018-03-19T17:02:39.393Z,3.52
2018-03-19T17:05:05.555Z,3.46
2018-03-19T17:07:31.675Z,3.35
2018-03-19T17:09:57.758Z,3.33
2018-03-19T17:12:23.847Z,3.25
2018-03-19T17:14:49.995Z,3.10
2018-03-19T17:17:16.075Z,3.12
2018-03-19T17:19:42.354Z,3.03
2018-03-19T17:22:08.417Z,2.90
2018-03-19T17:24:34.442Z,2.81
2018-03-19T17:27:00.531Z,2.69
2018-03-19T17:29:26.587Z,2.61
2018-03-19T17:31:52.664Z,2.49
2018-03-19T17:34:18.722Z,2.40
2018-03-19T17:36:44.802Z,2.32
2018-03-19T17:39:11.039Z,2.21
2018-03-19T17:41:37.920Z,2.17
2018-03-19T17:44:03.971Z,2.03
2018-03-19T17:46:30.052Z,1.87
2018-03-19T17:48:56.085Z,1.80
2018-03-19T17:51:22.378Z,1.71
2018-03-19T17:53:48.462Z,1.66
2018-03-19T17:56:14.504Z,1.49
2018-03-19T17:58:40.714Z,1.42
2018-03-19T18:01:06.870Z,1.28
2018-03-19T18:03:32.978Z,1.12
2018-03-19T18:05:59.046Z,1.05
2018-03-19T18:08:25.171Z,0.95
2018-03-19T18:10:51.236Z,0.88
2018-03-19T18:13:17.364Z,0.83
2018-03-19T18:15:43.469Z,0.73
2018-03-19T18:18:09.734Z,0.64
2018-03-19T18:20:35.853Z,0.57
2018-03-19T18:23:01.898Z,0.56
2018-03-19T18:25:28.029Z,0.54
2018-03-19T18:27:54.098Z,0.51
2018-03-19T18:30:20.142Z,0.49
2018-03-19T18:32:46.176Z,0.44
2018-03-19T18:35:12.228Z,0.41
2018-03-19T18:37:38.401Z,0.36
2018-03-19T18:40:04.753Z,0.30
2018-03-19T18:42:30.796Z,0.26
2018-03-19T18:44:56.882Z,0.24
2018-03-19T18:47:22.941Z,0.19
2018-03-19T18:49:49.032Z,0.13
2018-03-19T18:52:15.646Z,0.09
2018-03-19T18:54:41.717Z,0.06
2018-03-19T18:57:07.794Z,0.08
2018-03-19T18:59:33.891Z,0.01
2018-03-19T19:01:59.972Z,-0.09
2018-03-19T19:04:26.602Z,-0.04
2018-03-19T19:06:52.660Z,-0.08
2018-03-19T19:09:18.743Z,-0.11
2018-03-19T19:11:44.784Z,-0.14
2018-03-19T19:14:10.874Z,-0.18
2018-03-19T19:16:36.934Z,-0.25
2018-03-19T19:19:02.979Z,-0.29
2018-03-19T19:21:30.127Z,-0.32
2018-03-19T19:23:56.203Z,-0.34
2018-03-19T19:26:22.287Z,-0.42
2018-03-19T19:28:48.369Z,-0.42
2018-03-19T19:31:14.630Z,-0.44
2018-03-19T19:33:40.755Z,-0.49
2018-03-19T19:36:06.992Z,-0.53
2018-03-19T19:38:33.127Z,-0.55
2018-03-19T19:40:59.412Z,-0.56
2018-03-19T19:43:25.592Z,-0.62
2018-03-19T19:45:51.695Z,-0.64
2018-03-19T19:48:17.765Z,-0.63
2018-03-19T19:50:43.965Z,-0.68
2018-03-19T19:53:10.046Z,-0.70
2018-03-19T19:55:36.449Z,-0.71
2018-03-19T19:58:18.162Z,-0.76
2018-03-19T20:00:44.295Z,-0.76
2018-03-19T20:03:10.574Z,-0.85
2018-03-19T20:05:36.686Z,-0.92
2018-03-19T20:08:02.782Z,-0.88
2018-03-19T20:10:29.200Z,-0.93
2018-03-19T20:12:55.288Z,-0.99
2018-03-19T20:15:21.378Z,-1.10
2018-03-19T20:17:47.483Z,-1.12
2018-03-19T20:20:14.625Z,-1.15
2018-03-19T20:22:40.750Z,-1.14
2018-03-19T20:25:06.951Z,-1.20
2018-03-19T20:27:33.081Z,-1.20
2018-03-19T20:29:59.337Z,-1.32
2018-03-19T20:32:25.409Z,-1.34
2018-03-19T20:34:51.496Z,-1.36
2018-03-19T20:37:17.655Z,-1.34
2018-03-19T20:39:43.935Z,-1.36
2018-03-19T20:42:09.987Z,-1.38
2018-03-19T20:44:36.232Z,-1.44
2018-03-19T20:47:02.726Z,-1.46
2018-03-19T20:49:29.805Z,-1.53
2018-03-19T20:51:56.281Z,-1.57
2018-03-19T20:54:22.416Z,-1.62
2018-03-19T20:56:48.475Z,-1.63
2018-03-19T20:59:14.551Z,-1.62
2018-03-19T21:01:41.382Z,-1.63
2018-03-19T21:04:07.528Z,-1.70
2018-03-19T21:06:33.608Z,-1.76
2018-03-19T21:08:59.895Z,-1.82
2018-03-19T21:11:26.083Z,-1.80
2018-03-19T21:13:52.248Z,-1.80
2018-03-19T21:16:19.254Z,-1.83
2018-03-19T21:18:45.443Z,-1.86
2018-03-19T21:21:11.579Z,-1.94
2018-03-19T21:23:37.712Z,-2.03
2018-03-19T21:26:03.938Z,-2.10
2018-03-19T21:28:30.180Z,-2.07
2018-03-19T21:30:56.531Z,-2.10
2018-03-19T21:33:22.755Z,-2.12
2018-03-19T21:35:48.872Z,-2.11
2018-03-19T21:38:15.025Z,-2.13
2018-03-19T21:40:41.092Z,-2.21
2018-03-19T21:43:07.162Z,-2.34
2018-03-19T21:45:33.311Z,-2.35
2018-03-19T21:47:59.422Z,-2.34
2018-03-19T21:50:25.515Z,-2.40
2018-03-19T21:53:06.825Z,-2.50
2018-03-19T21:55:32.996Z,-2.46
2018-03-19T21:57:59.033Z,-2.40
2018-03-19T22:00:40.011Z,-2.47
2018-03-19T22:03:06.174Z,-2.48
2018-03-19T22:05:32.216Z,-2.50
2018-03-19T22:07:58.404Z,-2.54
2018-03-19T22:10:24.405Z,-2.48
2018-03-19T22:12:50.485Z,-2.39
2018-03-19T22:15:16.555Z,-2.43
2018-03-19T22:17:42.712Z,-2.44
2018-03-19T22:20:08.734Z,-2.52
2018-03-19T22:22:35.028Z,-2.49
2018-03-19T22:25:01.081Z,-2.62
2018-03-19T22:27:27.125Z,-2.68
2018-03-19T22:29:53.342Z,-2.84
2018-03-19T22:32:19.489Z,-2.84
2018-03-19T22:34:45.639Z,-2.86
2018-03-19T22:37:11.664Z,-2.66
2018-03-19T22:39:37.724Z,-2.47
2018-03-19T22:42:03.849Z,-2.33
2018-03-19T22:44:29.901Z,-2.39
2018-03-19T22:46:55.940Z,-2.45
2018-03-19T22:49:22.045Z,-2.49
2018-03-19T22:51:48.129Z,-2.40
2018-03-19T22:54:14.181Z,-2.49
2018-03-19T22:56:40.461Z,-2.56
2018-03-19T22:59:06.544Z,-2.59
2018-03-19T23:01:32.856Z,-2.62
2018-03-19T23:03:58.922Z,-2.69
2018-03-19T23:06:24.998Z,-2.81
2018-03-19T23:08:51.046Z,-2.82
2018-03-19T23:11:17.223Z,-2.91
2018-03-19T23:13:43.295Z,-2.99
2018-03-19T23:16:09.334Z,-3.00
2018-03-19T23:18:35.358Z,-3.07
2018-03-19T23:21:01.458Z,-3.07
2018-03-19T23:23:27.505Z,-3.14
2018-03-19T23:25:53.559Z,-3.21
2018-03-19T23:28:19.588Z,-3.16
2018-03-19T23:30:45.644Z,-3.22
2018-03-19T23:33:11.721Z,-3.27
2018-03-19T23:35:37.748Z,-3.25
2018-03-19T23:38:03.818Z,-3.30
2018-03-19T23:40:29.959Z,-3.24
2018-03-19T23:42:56.070Z,-3.25
2018-03-19T23:45:22.133Z,-3.31
2018-03-19T23:47:48.321Z,-3.27
2018-03-19T23:50:14.341Z,-3.19
2018-03-19T23:52:40.363Z,-3.12
2018-03-19T23:55:06.489Z,-3.04
2018-03-19T23:57:32.727Z,-2.95
2018-03-19T23:59:58.782Z,-2.92
